sensor_id;sensor_type;location;lat;lon;timestamp;P1;durP1;ratioP1;P2;durP2;ratioP2
34497;SDS011;20744;50.938;7.286;2022-11-20T00:01:27;16.48;;;11.55;;
34497;SDS011;20744;50.938;7.286;2022-11-20T00:03:55;17.95;;;11.10;;
34497;SDS011;20744;50.938;7.286;2022-11-20T00:06:25;15.57;;;11.45;;
34497;SDS011;20744;50.938;7.286;2022-11-20T00:08:53;16.75;;;11.77;;
34497;SDS011;20744;50.938;7.286;2022-11-20T00:11:22;16.25;;;11.10;;
34497;SDS011;20744;50.938;7.286;2022-11-20T00:13:50;15.85;;;11.18;;
34497;SDS011;20744;50.938;7.286;2022-11-20T00:16:18;15.18;;;11.13;;
34497;SDS011;20744;50.938;7.286;2022-11-20T00:18:46;21.48;;;11.98;;
34497;SDS011;20744;50.938;7.286;2022-11-20T00:21:14;15.35;;;11.15;;
34497;SDS011;20744;50.938;7.286;2022-11-20T00:23:43;15.80;;;11.30;;
34497;SDS011;20744;50.938;7.286;2022-11-20T00:26:11;16.02;;;11.43;;
34497;SDS011;20744;50.938;7.286;2022-11-20T00:28:39;17.05;;;11.48;;
34497;SDS011;20744;50.938;7.286;2022-11-20T00:31:08;17.85;;;11.18;;
34497;SDS011;20744;50.938;7.286;2022-11-20T00:33:35;14.65;;;10.07;;
34497;SDS011;20744;50.938;7.286;2022-11-20T00:36:03;15.02;;;10.57;;
34497;SDS011;20744;50.938;7.286;2022-11-20T00:38:31;16.33;;;11.27;;
34497;SDS011;20744;50.938;7.286;2022-11-20T00:41:00;17.95;;;10.80;;
34497;SDS011;20744;50.938;7.286;2022-11-20T00:43:28;15.43;;;10.98;;
34497;SDS011;20744;50.938;7.286;2022-11-20T00:45:58;15.20;;;11.25;;
34497;SDS011;20744;50.938;7.286;2022-11-20T00:48:26;18.55;;;11.30;;
34497;SDS011;20744;50.938;7.286;2022-11-20T00:50:53;15.38;;;10.82;;
34497;SDS011;20744;50.938;7.286;2022-11-20T00:53:21;16.02;;;11.10;;
34497;SDS011;20744;50.938;7.286;2022-11-20T00:55:55;16.85;;;11.25;;
34497;SDS011;20744;50.938;7.286;2022-11-20T00:58:24;19.13;;;11.60;;
34497;SDS011;20744;50.938;7.286;2022-11-20T01:00:52;14.82;;;10.75;;
34497;SDS011;20744;50.938;7.286;2022-11-20T01:03:19;16.30;;;11.15;;
34497;SDS011;20744;50.938;7.286;2022-11-20T01:05:46;16.25;;;11.55;;
34497;SDS011;20744;50.938;7.286;2022-11-20T01:08:13;15.85;;;10.85;;
34497;SDS011;20744;50.938;7.286;2022-11-20T01:10:41;17.73;;;11.50;;
34497;SDS011;20744;50.938;7.286;2022-11-20T01:13:08;15.23;;;11.02;;
34497;SDS011;20744;50.938;7.286;2022-11-20T01:15:54;16.58;;;10.70;;
34497;SDS011;20744;50.938;7.286;2022-11-20T01:18:21;16.30;;;11.48;;
34497;SDS011;20744;50.938;7.286;2022-11-20T01:20:48;17.00;;;11.52;;
34497;SDS011;20744;50.938;7.286;2022-11-20T01:23:16;17.70;;;11.82;;
34497;SDS011;20744;50.938;7.286;2022-11-20T01:25:43;17.65;;;12.05;;
34497;SDS011;20744;50.938;7.286;2022-11-20T01:28:10;15.63;;;11.43;;
34497;SDS011;20744;50.938;7.286;2022-11-20T01:30:37;19.65;;;13.05;;
34497;SDS011;20744;50.938;7.286;2022-11-20T01:33:06;19.38;;;12.57;;
34497;SDS011;20744;50.938;7.286;2022-11-20T01:35:33;19.73;;;11.80;;
34497;SDS011;20744;50.938;7.286;2022-11-20T01:38:00;17.60;;;12.10;;
34497;SDS011;20744;50.938;7.286;2022-11-20T01:40:28;19.33;;;11.85;;
34497;SDS011;20744;50.938;7.286;2022-11-20T01:43:09;17.25;;;12.10;;
34497;SDS011;20744;50.938;7.286;2022-11-20T01:48:35;17.88;;;11.73;;
34497;SDS011;20744;50.938;7.286;2022-11-20T01:51:03;17.30;;;11.30;;
34497;SDS011;20744;50.938;7.286;2022-11-20T01:53:32;16.08;;;10.80;;
34497;SDS011;20744;50.938;7.286;2022-11-20T01:56:01;17.10;;;11.52;;
34497;SDS011;20744;50.938;7.286;2022-11-20T01:58:30;16.35;;;11.77;;
34497;SDS011;20744;50.938;7.286;2022-11-20T02:00:59;16.00;;;11.15;;
34497;SDS011;20744;50.938;7.286;2022-11-20T02:03:26;15.52;;;11.10;;
34497;SDS011;20744;50.938;7.286;2022-11-20T02:05:57;16.13;;;11.15;;
34497;SDS011;20744;50.938;7.286;2022-11-20T02:08:26;17.85;;;11.82;;
34497;SDS011;20744;50.938;7.286;2022-11-20T02:10:53;15.50;;;11.18;;
34497;SDS011;20744;50.938;7.286;2022-11-20T02:13:20;17.70;;;11.55;;
34497;SDS011;20744;50.938;7.286;2022-11-20T02:16:06;17.58;;;10.88;;
34497;SDS011;20744;50.938;7.286;2022-11-20T02:18:35;16.75;;;11.18;;
34497;SDS011;20744;50.938;7.286;2022-11-20T02:21:05;16.95;;;11.27;;
34497;SDS011;20744;50.938;7.286;2022-11-20T02:23:36;15.88;;;11.45;;
34497;SDS011;20744;50.938;7.286;2022-11-20T02:26:07;17.30;;;11.75;;
34497;SDS011;20744;50.938;7.286;2022-11-20T02:28:36;17.20;;;11.65;;
34497;SDS011;20744;50.938;7.286;2022-11-20T02:31:03;16.52;;;11.25;;
34497;SDS011;20744;50.938;7.286;2022-11-20T02:33:31;19.60;;;12.05;;
34497;SDS011;20744;50.938;7.286;2022-11-20T02:35:58;19.77;;;11.63;;
34497;SDS011;20744;50.938;7.286;2022-11-20T02:38:25;17.67;;;11.38;;
34497;SDS011;20744;50.938;7.286;2022-11-20T02:40:53;16.83;;;11.13;;
34497;SDS011;20744;50.938;7.286;2022-11-20T02:43:21;20.30;;;11.88;;
34497;SDS011;20744;50.938;7.286;2022-11-20T02:45:48;16.38;;;11.75;;
34497;SDS011;20744;50.938;7.286;2022-11-20T02:48:16;18.90;;;12.40;;
34497;SDS011;20744;50.938;7.286;2022-11-20T02:50:43;17.33;;;11.88;;
34497;SDS011;20744;50.938;7.286;2022-11-20T02:53:10;17.95;;;12.25;;
34497;SDS011;20744;50.938;7.286;2022-11-20T02:55:37;19.90;;;12.65;;
34497;SDS011;20744;50.938;7.286;2022-11-20T02:58:05;19.15;;;12.90;;
34497;SDS011;20744;50.938;7.286;2022-11-20T03:00:33;17.25;;;12.20;;
34497;SDS011;20744;50.938;7.286;2022-11-20T03:03:01;19.92;;;12.57;;
34497;SDS011;20744;50.938;7.286;2022-11-20T03:05:28;17.60;;;11.88;;
34497;SDS011;20744;50.938;7.286;2022-11-20T03:07:55;18.65;;;12.80;;
34497;SDS011;20744;50.938;7.286;2022-11-20T03:10:22;17.00;;;12.48;;
34497;SDS011;20744;50.938;7.286;2022-11-20T03:12:52;18.60;;;12.98;;
34497;SDS011;20744;50.938;7.286;2022-11-20T03:15:19;17.77;;;12.00;;
34497;SDS011;20744;50.938;7.286;2022-11-20T03:17:48;21.58;;;13.23;;
34497;SDS011;20744;50.938;7.286;2022-11-20T03:20:15;18.23;;;12.73;;
34497;SDS011;20744;50.938;7.286;2022-11-20T03:22:42;17.75;;;11.93;;
34497;SDS011;20744;50.938;7.286;2022-11-20T03:25:09;19.65;;;13.93;;
34497;SDS011;20744;50.938;7.286;2022-11-20T03:27:37;18.67;;;12.65;;
34497;SDS011;20744;50.938;7.286;2022-11-20T03:30:04;19.23;;;12.60;;
34497;SDS011;20744;50.938;7.286;2022-11-20T03:32:32;20.08;;;13.10;;
34497;SDS011;20744;50.938;7.286;2022-11-20T03:35:00;17.60;;;12.10;;
34497;SDS011;20744;50.938;7.286;2022-11-20T03:37:27;18.92;;;13.57;;
34497;SDS011;20744;50.938;7.286;2022-11-20T03:39:55;17.70;;;12.40;;
34497;SDS011;20744;50.938;7.286;2022-11-20T03:42:22;18.77;;;12.95;;
34497;SDS011;20744;50.938;7.286;2022-11-20T03:45:07;19.05;;;12.73;;
34497;SDS011;20744;50.938;7.286;2022-11-20T03:47:34;17.95;;;12.48;;
34497;SDS011;20744;50.938;7.286;2022-11-20T03:50:03;18.58;;;12.77;;
34497;SDS011;20744;50.938;7.286;2022-11-20T03:52:30;18.08;;;12.57;;
34497;SDS011;20744;50.938;7.286;2022-11-20T03:54:58;18.48;;;12.73;;
34497;SDS011;20744;50.938;7.286;2022-11-20T03:57:25;22.50;;;13.50;;
34497;SDS011;20744;50.938;7.286;2022-11-20T03:59:52;17.98;;;12.40;;
34497;SDS011;20744;50.938;7.286;2022-11-20T04:02:19;22.05;;;13.63;;
34497;SDS011;20744;50.938;7.286;2022-11-20T04:04:47;20.23;;;13.02;;
34497;SDS011;20744;50.938;7.286;2022-11-20T04:07:15;19.60;;;12.80;;
34497;SDS011;20744;50.938;7.286;2022-11-20T04:09:43;19.48;;;12.95;;
34497;SDS011;20744;50.938;7.286;2022-11-20T04:12:10;19.55;;;13.25;;
34497;SDS011;20744;50.938;7.286;2022-11-20T04:14:37;17.73;;;12.48;;
34497;SDS011;20744;50.938;7.286;2022-11-20T04:17:04;24.30;;;12.90;;
34497;SDS011;20744;50.938;7.286;2022-11-20T04:19:31;18.40;;;13.15;;
34497;SDS011;20744;50.938;7.286;2022-11-20T04:21:59;21.58;;;13.10;;
34497;SDS011;20744;50.938;7.286;2022-11-20T04:24:27;19.80;;;12.60;;
34497;SDS011;20744;50.938;7.286;2022-11-20T04:26:54;17.88;;;12.57;;
34497;SDS011;20744;50.938;7.286;2022-11-20T04:29:22;18.98;;;12.45;;
34497;SDS011;20744;50.938;7.286;2022-11-20T04:31:49;20.13;;;12.98;;
34497;SDS011;20744;50.938;7.286;2022-11-20T04:34:16;18.83;;;12.85;;
34497;SDS011;20744;50.938;7.286;2022-11-20T04:36:43;21.02;;;13.05;;
34497;SDS011;20744;50.938;7.286;2022-11-20T04:39:11;19.92;;;13.73;;
34497;SDS011;20744;50.938;7.286;2022-11-20T04:41:40;19.98;;;13.50;;
34497;SDS011;20744;50.938;7.286;2022-11-20T04:44:07;17.27;;;12.65;;
34497;SDS011;20744;50.938;7.286;2022-11-20T04:46:35;17.88;;;12.63;;
34497;SDS011;20744;50.938;7.286;2022-11-20T04:49:03;19.00;;;13.43;;
34497;SDS011;20744;50.938;7.286;2022-11-20T04:51:30;18.63;;;12.88;;
34497;SDS011;20744;50.938;7.286;2022-11-20T04:53:57;20.33;;;13.30;;
34497;SDS011;20744;50.938;7.286;2022-11-20T04:56:24;19.67;;;13.43;;
34497;SDS011;20744;50.938;7.286;2022-11-20T04:58:53;20.80;;;13.73;;
34497;SDS011;20744;50.938;7.286;2022-11-20T05:01:21;19.77;;;13.70;;
34497;SDS011;20744;50.938;7.286;2022-11-20T05:03:49;18.35;;;12.40;;
34497;SDS011;20744;50.938;7.286;2022-11-20T05:06:17;19.67;;;13.07;;
34497;SDS011;20744;50.938;7.286;2022-11-20T05:08:44;19.70;;;13.70;;
34497;SDS011;20744;50.938;7.286;2022-11-20T05:11:12;21.10;;;13.35;;
34497;SDS011;20744;50.938;7.286;2022-11-20T05:13:39;22.70;;;13.93;;
34497;SDS011;20744;50.938;7.286;2022-11-20T05:16:09;21.15;;;14.30;;
34497;SDS011;20744;50.938;7.286;2022-11-20T05:18:36;23.35;;;15.00;;
34497;SDS011;20744;50.938;7.286;2022-11-20T05:21:04;20.67;;;14.10;;
34497;SDS011;20744;50.938;7.286;2022-11-20T05:23:32;19.38;;;13.23;;
34497;SDS011;20744;50.938;7.286;2022-11-20T05:25:59;22.25;;;14.20;;
34497;SDS011;20744;50.938;7.286;2022-11-20T05:28:27;19.40;;;13.30;;
34497;SDS011;20744;50.938;7.286;2022-11-20T05:30:54;20.08;;;13.30;;
34497;SDS011;20744;50.938;7.286;2022-11-20T05:33:23;20.90;;;13.88;;
34497;SDS011;20744;50.938;7.286;2022-11-20T05:35:51;20.25;;;13.95;;
34497;SDS011;20744;50.938;7.286;2022-11-20T05:38:19;20.60;;;13.90;;
34497;SDS011;20744;50.938;7.286;2022-11-20T05:40:46;19.08;;;13.27;;
34497;SDS011;20744;50.938;7.286;2022-11-20T05:43:13;20.60;;;14.13;;
34497;SDS011;20744;50.938;7.286;2022-11-20T05:45:40;21.08;;;13.57;;
34497;SDS011;20744;50.938;7.286;2022-11-20T05:48:08;20.40;;;13.32;;
34497;SDS011;20744;50.938;7.286;2022-11-20T05:50:36;22.70;;;14.77;;
34497;SDS011;20744;50.938;7.286;2022-11-20T05:53:03;20.98;;;14.23;;
34497;SDS011;20744;50.938;7.286;2022-11-20T05:55:31;21.58;;;14.23;;
34497;SDS011;20744;50.938;7.286;2022-11-20T05:57:58;23.85;;;15.30;;
34497;SDS011;20744;50.938;7.286;2022-11-20T06:00:25;24.83;;;15.82;;
34497;SDS011;20744;50.938;7.286;2022-11-20T06:02:52;21.88;;;14.85;;
34497;SDS011;20744;50.938;7.286;2022-11-20T06:05:20;22.63;;;14.73;;
34497;SDS011;20744;50.938;7.286;2022-11-20T06:07:48;23.02;;;15.02;;
34497;SDS011;20744;50.938;7.286;2022-11-20T06:10:15;20.88;;;13.82;;
34497;SDS011;20744;50.938;7.286;2022-11-20T06:12:43;21.70;;;15.00;;
34497;SDS011;20744;50.938;7.286;2022-11-20T06:15:10;21.80;;;14.20;;
34497;SDS011;20744;50.938;7.286;2022-11-20T06:17:37;20.90;;;14.15;;
34497;SDS011;20744;50.938;7.286;2022-11-20T06:20:05;22.05;;;14.93;;
34497;SDS011;20744;50.938;7.286;2022-11-20T06:22:32;22.40;;;15.05;;
34497;SDS011;20744;50.938;7.286;2022-11-20T06:25:01;25.15;;;14.70;;
34497;SDS011;20744;50.938;7.286;2022-11-20T06:27:28;24.45;;;15.85;;
34497;SDS011;20744;50.938;7.286;2022-11-20T06:29:55;23.92;;;15.05;;
34497;SDS011;20744;50.938;7.286;2022-11-20T06:32:22;22.67;;;15.38;;
34497;SDS011;20744;50.938;7.286;2022-11-20T06:34:50;24.95;;;15.88;;
34497;SDS011;20744;50.938;7.286;2022-11-20T06:37:17;23.25;;;15.35;;
34497;SDS011;20744;50.938;7.286;2022-11-20T06:39:44;23.58;;;14.77;;
34497;SDS011;20744;50.938;7.286;2022-11-20T06:42:13;25.17;;;15.93;;
34497;SDS011;20744;50.938;7.286;2022-11-20T06:44:40;27.90;;;16.00;;
34497;SDS011;20744;50.938;7.286;2022-11-20T06:47:07;24.60;;;15.50;;
34497;SDS011;20744;50.938;7.286;2022-11-20T06:49:34;25.17;;;16.55;;
34497;SDS011;20744;50.938;7.286;2022-11-20T06:52:03;23.65;;;15.52;;
34497;SDS011;20744;50.938;7.286;2022-11-20T06:54:30;24.67;;;15.70;;
34497;SDS011;20744;50.938;7.286;2022-11-20T06:56:57;26.60;;;16.95;;
34497;SDS011;20744;50.938;7.286;2022-11-20T06:59:26;26.73;;;17.70;;
34497;SDS011;20744;50.938;7.286;2022-11-20T07:01:53;27.45;;;17.15;;
34497;SDS011;20744;50.938;7.286;2022-11-20T07:04:20;25.85;;;16.52;;
34497;SDS011;20744;50.938;7.286;2022-11-20T07:06:48;26.52;;;16.85;;
34497;SDS011;20744;50.938;7.286;2022-11-20T07:09:15;23.27;;;14.98;;
34497;SDS011;20744;50.938;7.286;2022-11-20T07:11:42;26.60;;;15.90;;
34497;SDS011;20744;50.938;7.286;2022-11-20T07:14:09;22.75;;;15.25;;
34497;SDS011;20744;50.938;7.286;2022-11-20T07:16:38;24.48;;;16.23;;
34497;SDS011;20744;50.938;7.286;2022-11-20T07:19:05;24.88;;;15.82;;
34497;SDS011;20744;50.938;7.286;2022-11-20T07:21:32;25.00;;;15.75;;
34497;SDS011;20744;50.938;7.286;2022-11-20T07:24:00;24.60;;;16.23;;
34497;SDS011;20744;50.938;7.286;2022-11-20T07:26:27;22.10;;;14.73;;
34497;SDS011;20744;50.938;7.286;2022-11-20T07:28:54;25.30;;;15.30;;
34497;SDS011;20744;50.938;7.286;2022-11-20T07:31:21;23.83;;;15.40;;
34497;SDS011;20744;50.938;7.286;2022-11-20T07:33:50;23.67;;;15.95;;
34497;SDS011;20744;50.938;7.286;2022-11-20T07:36:17;24.92;;;14.85;;
34497;SDS011;20744;50.938;7.286;2022-11-20T07:38:44;22.48;;;14.73;;
34497;SDS011;20744;50.938;7.286;2022-11-20T07:41:12;27.70;;;17.70;;
34497;SDS011;20744;50.938;7.286;2022-11-20T07:43:39;23.92;;;16.63;;
34497;SDS011;20744;50.938;7.286;2022-11-20T07:46:06;26.02;;;16.25;;
34497;SDS011;20744;50.938;7.286;2022-11-20T07:48:33;24.38;;;16.17;;
34497;SDS011;20744;50.938;7.286;2022-11-20T07:51:02;25.40;;;15.90;;
34497;SDS011;20744;50.938;7.286;2022-11-20T07:53:29;27.98;;;16.77;;
34497;SDS011;20744;50.938;7.286;2022-11-20T07:55:58;23.73;;;15.73;;
34497;SDS011;20744;50.938;7.286;2022-11-20T07:58:26;27.10;;;15.75;;
34497;SDS011;20744;50.938;7.286;2022-11-20T08:00:53;26.65;;;16.45;;
34497;SDS011;20744;50.938;7.286;2022-11-20T08:03:20;27.73;;;16.67;;
34497;SDS011;20744;50.938;7.286;2022-11-20T08:05:48;32.40;;;15.82;;
34497;SDS011;20744;50.938;7.286;2022-11-20T08:08:17;25.50;;;16.48;;
34497;SDS011;20744;50.938;7.286;2022-11-20T08:10:44;24.95;;;15.25;;
34497;SDS011;20744;50.938;7.286;2022-11-20T08:13:12;25.30;;;16.40;;
34497;SDS011;20744;50.938;7.286;2022-11-20T08:15:57;24.30;;;15.57;;
34497;SDS011;20744;50.938;7.286;2022-11-20T08:18:24;25.40;;;16.55;;
34497;SDS011;20744;50.938;7.286;2022-11-20T08:20:51;25.65;;;16.13;;
34497;SDS011;20744;50.938;7.286;2022-11-20T08:23:20;27.98;;;16.23;;
34497;SDS011;20744;50.938;7.286;2022-11-20T08:25:48;24.00;;;16.70;;
34497;SDS011;20744;50.938;7.286;2022-11-20T08:28:16;25.90;;;16.92;;
34497;SDS011;20744;50.938;7.286;2022-11-20T08:30:43;30.55;;;18.65;;
34497;SDS011;20744;50.938;7.286;2022-11-20T08:33:10;31.85;;;18.90;;
34497;SDS011;20744;50.938;7.286;2022-11-20T08:35:38;30.83;;;18.27;;
34497;SDS011;20744;50.938;7.286;2022-11-20T08:38:06;27.55;;;17.45;;
34497;SDS011;20744;50.938;7.286;2022-11-20T08:40:35;31.60;;;19.00;;
34497;SDS011;20744;50.938;7.286;2022-11-20T08:43:02;30.48;;;18.95;;
34497;SDS011;20744;50.938;7.286;2022-11-20T08:45:29;28.00;;;18.15;;
34497;SDS011;20744;50.938;7.286;2022-11-20T08:47:59;29.27;;;17.52;;
34497;SDS011;20744;50.938;7.286;2022-11-20T08:50:27;32.85;;;19.10;;
34497;SDS011;20744;50.938;7.286;2022-11-20T08:53:01;29.50;;;17.88;;
34497;SDS011;20744;50.938;7.286;2022-11-20T08:55:28;29.52;;;18.58;;
34497;SDS011;20744;50.938;7.286;2022-11-20T08:57:57;29.48;;;17.98;;
34497;SDS011;20744;50.938;7.286;2022-11-20T09:00:24;31.20;;;18.90;;
34497;SDS011;20744;50.938;7.286;2022-11-20T09:02:51;26.88;;;18.25;;
34497;SDS011;20744;50.938;7.286;2022-11-20T09:05:18;26.63;;;17.55;;
34497;SDS011;20744;50.938;7.286;2022-11-20T09:07:45;30.02;;;19.23;;
34497;SDS011;20744;50.938;7.286;2022-11-20T09:10:13;26.15;;;17.08;;
34497;SDS011;20744;50.938;7.286;2022-11-20T09:12:40;28.88;;;17.75;;
34497;SDS011;20744;50.938;7.286;2022-11-20T09:15:09;30.67;;;18.83;;
34497;SDS011;20744;50.938;7.286;2022-11-20T09:17:37;25.40;;;17.17;;
34497;SDS011;20744;50.938;7.286;2022-11-20T09:20:05;26.17;;;18.02;;
34497;SDS011;20744;50.938;7.286;2022-11-20T09:22:32;32.40;;;18.55;;
34497;SDS011;20744;50.938;7.286;2022-11-20T09:24:59;26.55;;;17.92;;
34497;SDS011;20744;50.938;7.286;2022-11-20T09:27:26;27.70;;;18.48;;
34497;SDS011;20744;50.938;7.286;2022-11-20T09:29:54;25.88;;;17.20;;
34497;SDS011;20744;50.938;7.286;2022-11-20T09:32:22;26.83;;;16.90;;
34497;SDS011;20744;50.938;7.286;2022-11-20T09:34:49;28.02;;;16.98;;
34497;SDS011;20744;50.938;7.286;2022-11-20T09:37:17;26.60;;;17.52;;
34497;SDS011;20744;50.938;7.286;2022-11-20T09:39:44;28.40;;;17.52;;
34497;SDS011;20744;50.938;7.286;2022-11-20T09:42:17;26.48;;;16.67;;
34497;SDS011;20744;50.938;7.286;2022-11-20T09:44:57;22.35;;;13.65;;
34497;SDS011;20744;50.938;7.286;2022-11-20T09:47:32;23.02;;;14.43;;
34497;SDS011;20744;50.938;7.286;2022-11-20T09:50:10;23.90;;;15.80;;
34497;SDS011;20744;50.938;7.286;2022-11-20T09:52:43;19.45;;;13.50;;
34497;SDS011;20744;50.938;7.286;2022-11-20T09:55:13;22.23;;;13.85;;
34497;SDS011;20744;50.938;7.286;2022-11-20T09:57:42;21.40;;;13.95;;
34497;SDS011;20744;50.938;7.286;2022-11-20T10:00:10;21.10;;;14.20;;
34497;SDS011;20744;50.938;7.286;2022-11-20T10:02:40;18.67;;;13.20;;
34497;SDS011;20744;50.938;7.286;2022-11-20T10:05:10;20.27;;;13.63;;
34497;SDS011;20744;50.938;7.286;2022-11-20T10:07:40;27.95;;;16.23;;
34497;SDS011;20744;50.938;7.286;2022-11-20T10:10:13;20.95;;;13.95;;
34497;SDS011;20744;50.938;7.286;2022-11-20T10:12:45;17.73;;;12.18;;
34497;SDS011;20744;50.938;7.286;2022-11-20T10:15:21;19.50;;;11.73;;
34497;SDS011;20744;50.938;7.286;2022-11-20T10:20:40;18.33;;;10.75;;
34497;SDS011;20744;50.938;7.286;2022-11-20T10:26:01;15.80;;;10.98;;
34497;SDS011;20744;50.938;7.286;2022-11-20T10:28:37;15.15;;;10.43;;
34497;SDS011;20744;50.938;7.286;2022-11-20T10:31:10;15.02;;;10.02;;
34497;SDS011;20744;50.938;7.286;2022-11-20T10:33:39;16.48;;;10.38;;
34497;SDS011;20744;50.938;7.286;2022-11-20T10:36:12;18.30;;;10.70;;
34497;SDS011;20744;50.938;7.286;2022-11-20T10:38:42;17.27;;;11.02;;
34497;SDS011;20744;50.938;7.286;2022-11-20T10:41:11;18.02;;;12.75;;
34497;SDS011;20744;50.938;7.286;2022-11-20T10:43:52;16.95;;;11.38;;
34497;SDS011;20744;50.938;7.286;2022-11-20T10:46:20;18.45;;;11.75;;
34497;SDS011;20744;50.938;7.286;2022-11-20T10:48:48;21.13;;;12.85;;
34497;SDS011;20744;50.938;7.286;2022-11-20T10:51:21;18.48;;;11.35;;
34497;SDS011;20744;50.938;7.286;2022-11-20T10:53:58;20.40;;;12.98;;
34497;SDS011;20744;50.938;7.286;2022-11-20T10:56:31;20.00;;;13.82;;
34497;SDS011;20744;50.938;7.286;2022-11-20T10:59:03;22.13;;;13.95;;
34497;SDS011;20744;50.938;7.286;2022-11-20T11:01:30;19.42;;;12.60;;
34497;SDS011;20744;50.938;7.286;2022-11-20T11:03:57;19.70;;;12.75;;
34497;SDS011;20744;50.938;7.286;2022-11-20T11:06:28;22.52;;;13.77;;
34497;SDS011;20744;50.938;7.286;2022-11-20T11:08:58;21.38;;;13.32;;
34497;SDS011;20744;50.938;7.286;2022-11-20T11:11:29;20.20;;;13.77;;
34497;SDS011;20744;50.938;7.286;2022-11-20T11:14:04;20.33;;;13.57;;
34497;SDS011;20744;50.938;7.286;2022-11-20T11:16:31;21.38;;;13.20;;
34497;SDS011;20744;50.938;7.286;2022-11-20T11:19:05;21.08;;;14.30;;
34497;SDS011;20744;50.938;7.286;2022-11-20T11:21:34;21.88;;;15.07;;
34497;SDS011;20744;50.938;7.286;2022-11-20T11:24:14;19.70;;;13.32;;
34497;SDS011;20744;50.938;7.286;2022-11-20T11:26:50;24.02;;;15.98;;
34497;SDS011;20744;50.938;7.286;2022-11-20T11:29:17;25.45;;;16.67;;
34497;SDS011;20744;50.938;7.286;2022-11-20T11:31:45;24.90;;;15.63;;
34497;SDS011;20744;50.938;7.286;2022-11-20T11:34:12;23.80;;;15.77;;
34497;SDS011;20744;50.938;7.286;2022-11-20T11:36:41;25.08;;;16.55;;
34497;SDS011;20744;50.938;7.286;2022-11-20T11:39:11;27.63;;;16.35;;
34497;SDS011;20744;50.938;7.286;2022-11-20T11:41:39;28.42;;;16.48;;
34497;SDS011;20744;50.938;7.286;2022-11-20T11:44:14;27.40;;;16.17;;
34497;SDS011;20744;50.938;7.286;2022-11-20T11:46:59;27.65;;;16.02;;
34497;SDS011;20744;50.938;7.286;2022-11-20T11:49:27;25.92;;;17.52;;
34497;SDS011;20744;50.938;7.286;2022-11-20T11:52:08;28.10;;;18.08;;
34497;SDS011;20744;50.938;7.286;2022-11-20T11:54:38;25.00;;;17.65;;
34497;SDS011;20744;50.938;7.286;2022-11-20T11:57:10;24.33;;;16.20;;
34497;SDS011;20744;50.938;7.286;2022-11-20T11:59:41;25.67;;;16.40;;
34497;SDS011;20744;50.938;7.286;2022-11-20T12:02:14;26.50;;;16.42;;
34497;SDS011;20744;50.938;7.286;2022-11-20T12:04:46;22.27;;;14.65;;
34497;SDS011;20744;50.938;7.286;2022-11-20T12:07:19;24.42;;;15.82;;
34497;SDS011;20744;50.938;7.286;2022-11-20T12:09:48;25.48;;;15.85;;
34497;SDS011;20744;50.938;7.286;2022-11-20T12:12:18;25.75;;;16.35;;
34497;SDS011;20744;50.938;7.286;2022-11-20T12:14:47;25.48;;;16.73;;
34497;SDS011;20744;50.938;7.286;2022-11-20T12:17:17;27.40;;;16.40;;
34497;SDS011;20744;50.938;7.286;2022-11-20T12:19:45;25.08;;;16.42;;
34497;SDS011;20744;50.938;7.286;2022-11-20T12:22:14;29.15;;;17.30;;
34497;SDS011;20744;50.938;7.286;2022-11-20T12:24:51;31.45;;;19.10;;
34497;SDS011;20744;50.938;7.286;2022-11-20T12:27:26;28.77;;;16.73;;
34497;SDS011;20744;50.938;7.286;2022-11-20T12:29:57;25.58;;;15.73;;
34497;SDS011;20744;50.938;7.286;2022-11-20T12:32:37;27.15;;;16.63;;
34497;SDS011;20744;50.938;7.286;2022-11-20T12:35:11;23.15;;;16.00;;
34497;SDS011;20744;50.938;7.286;2022-11-20T12:37:44;23.48;;;15.38;;
34497;SDS011;20744;50.938;7.286;2022-11-20T12:40:21;26.15;;;16.27;;
34497;SDS011;20744;50.938;7.286;2022-11-20T12:42:54;27.48;;;16.67;;
34497;SDS011;20744;50.938;7.286;2022-11-20T12:48:25;27.70;;;17.08;;
34497;SDS011;20744;50.938;7.286;2022-11-20T12:50:57;28.52;;;17.98;;
34497;SDS011;20744;50.938;7.286;2022-11-20T12:53:30;25.08;;;16.58;;
34497;SDS011;20744;50.938;7.286;2022-11-20T12:56:01;25.52;;;16.52;;
34497;SDS011;20744;50.938;7.286;2022-11-20T12:58:33;26.50;;;16.00;;
34497;SDS011;20744;50.938;7.286;2022-11-20T13:01:05;25.20;;;15.50;;
34497;SDS011;20744;50.938;7.286;2022-11-20T13:03:36;24.35;;;15.88;;
34497;SDS011;20744;50.938;7.286;2022-11-20T13:06:05;27.85;;;17.20;;
34497;SDS011;20744;50.938;7.286;2022-11-20T13:08:38;26.55;;;15.95;;
34497;SDS011;20744;50.938;7.286;2022-11-20T13:11:09;24.90;;;15.48;;
34497;SDS011;20744;50.938;7.286;2022-11-20T13:13:42;32.30;;;19.27;;
34497;SDS011;20744;50.938;7.286;2022-11-20T13:16:10;25.10;;;16.92;;
34497;SDS011;20744;50.938;7.286;2022-11-20T13:18:41;27.80;;;16.27;;
34497;SDS011;20744;50.938;7.286;2022-11-20T13:21:13;28.10;;;18.10;;
34497;SDS011;20744;50.938;7.286;2022-11-20T13:23:41;24.73;;;16.17;;
34497;SDS011;20744;50.938;7.286;2022-11-20T13:26:15;25.00;;;15.88;;
34497;SDS011;20744;50.938;7.286;2022-11-20T13:28:43;24.48;;;16.20;;
34497;SDS011;20744;50.938;7.286;2022-11-20T13:31:23;24.98;;;15.88;;
34497;SDS011;20744;50.938;7.286;2022-11-20T13:33:51;26.00;;;17.30;;
34497;SDS011;20744;50.938;7.286;2022-11-20T13:36:21;27.33;;;15.63;;
34497;SDS011;20744;50.938;7.286;2022-11-20T13:38:49;25.40;;;16.92;;
34497;SDS011;20744;50.938;7.286;2022-11-20T13:41:24;28.00;;;17.33;;
34497;SDS011;20744;50.938;7.286;2022-11-20T13:43:54;26.23;;;16.35;;
34497;SDS011;20744;50.938;7.286;2022-11-20T13:46:34;27.98;;;18.15;;
34497;SDS011;20744;50.938;7.286;2022-11-20T13:49:05;25.00;;;17.38;;
34497;SDS011;20744;50.938;7.286;2022-11-20T13:51:36;27.13;;;17.38;;
34497;SDS011;20744;50.938;7.286;2022-11-20T13:54:19;26.45;;;16.75;;
34497;SDS011;20744;50.938;7.286;2022-11-20T13:56:54;26.00;;;15.95;;
34497;SDS011;20744;50.938;7.286;2022-11-20T13:59:29;28.73;;;16.95;;
34497;SDS011;20744;50.938;7.286;2022-11-20T14:01:58;24.98;;;16.52;;
34497;SDS011;20744;50.938;7.286;2022-11-20T14:04:27;27.80;;;16.40;;
34497;SDS011;20744;50.938;7.286;2022-11-20T14:06:55;27.55;;;16.88;;
34497;SDS011;20744;50.938;7.286;2022-11-20T14:09:27;28.65;;;17.60;;
34497;SDS011;20744;50.938;7.286;2022-11-20T14:11:56;29.13;;;17.38;;
34497;SDS011;20744;50.938;7.286;2022-11-20T14:14:23;25.60;;;16.90;;
34497;SDS011;20744;50.938;7.286;2022-11-20T14:16:51;25.38;;;16.77;;
34497;SDS011;20744;50.938;7.286;2022-11-20T14:19:25;26.15;;;17.05;;
34497;SDS011;20744;50.938;7.286;2022-11-20T14:21:54;25.92;;;16.58;;
34497;SDS011;20744;50.938;7.286;2022-11-20T14:24:23;27.67;;;17.55;;
34497;SDS011;20744;50.938;7.286;2022-11-20T14:26:52;25.95;;;16.80;;
34497;SDS011;20744;50.938;7.286;2022-11-20T14:29:21;27.42;;;17.05;;
34497;SDS011;20744;50.938;7.286;2022-11-20T14:31:51;27.92;;;17.95;;
34497;SDS011;20744;50.938;7.286;2022-11-20T14:34:20;27.98;;;17.42;;
34497;SDS011;20744;50.938;7.286;2022-11-20T14:36:48;27.05;;;16.90;;
34497;SDS011;20744;50.938;7.286;2022-11-20T14:39:20;29.15;;;17.40;;
34497;SDS011;20744;50.938;7.286;2022-11-20T14:41:49;28.05;;;17.83;;
34497;SDS011;20744;50.938;7.286;2022-11-20T14:44:17;27.10;;;17.80;;